sensor_id;sensor_type;location;lat;lon;timestamp;pressure;altitude;pressure_sealevel;temperature;humidity
83248;BME280;73465;51.038;7.052;2023-12-20T00:02:03;100700.31;;;19.49;52.11
83248;BME280;73465;51.038;7.052;2023-12-20T00:04:28;100709.78;;;19.53;52.21
83248;BME280;73465;51.038;7.052;2023-12-20T00:06:53;100711.59;;;19.53;52.21
83248;BME280;73465;51.038;7.052;2023-12-20T00:09:18;100704.69;;;19.50;52.13
83248;BME280;73465;51.038;7.052;2023-12-20T00:11:44;100711.72;;;19.51;52.39
83248;BME280;73465;51.038;7.052;2023-12-20T00:14:09;100710.03;;;19.50;52.34
83248;BME280;73465;51.038;7.052;2023-12-20T00:16:34;100709.03;;;19.51;52.33
83248;BME280;73465;51.038;7.052;2023-12-20T00:19:00;100697.63;;;19.49;52.13
83248;BME280;73465;51.038;7.052;2023-12-20T00:21:25;100704.69;;;19.50;52.32
83248;BME280;73465;51.038;7.052;2023-12-20T00:23:50;100699.59;;;19.47;52.21
83248;BME280;73465;51.038;7.052;2023-12-20T00:26:16;100709.28;;;19.48;52.48
83248;BME280;73465;51.038;7.052;2023-12-20T00:28:41;100732.63;;;19.46;52.45
83248;BME280;73465;51.038;7.052;2023-12-20T00:31:07;100729.09;;;19.46;52.57
83248;BME280;73465;51.038;7.052;2023-12-20T00:33:33;100724.84;;;19.43;52.66
83248;BME280;73465;51.038;7.052;2023-12-20T00:35:58;100728.38;;;19.44;52.50
83248;BME280;73465;51.038;7.052;2023-12-20T00:38:24;100714.81;;;19.35;52.66
83248;BME280;73465;51.038;7.052;2023-12-20T00:40:49;100728.50;;;19.42;52.58
83248;BME280;73465;51.038;7.052;2023-12-20T00:43:17;100730.47;;;19.40;52.57
83248;BME280;73465;51.038;7.052;2023-12-20T00:45:42;100730.47;;;19.40;52.57
83248;BME280;73465;51.038;7.052;2023-12-20T00:48:08;100740.28;;;19.39;52.72
83248;BME280;73465;51.038;7.052;2023-12-20T00:50:33;100726.94;;;19.39;52.41
83248;BME280;73465;51.038;7.052;2023-12-20T00:52:58;100734.47;;;19.34;52.13
83248;BME280;73465;51.038;7.052;2023-12-20T00:55:23;100748.16;;;19.41;52.26
83248;BME280;73465;51.038;7.052;2023-12-20T00:57:49;100743.91;;;19.38;52.92
83248;BME280;73465;51.038;7.052;2023-12-20T01:00:14;100735.13;;;19.27;52.66
83248;BME280;73465;51.038;7.052;2023-12-20T01:02:40;100725.13;;;19.29;52.53
83248;BME280;73465;51.038;7.052;2023-12-20T01:05:06;100743.31;;;19.35;52.54
83248;BME280;73465;51.038;7.052;2023-12-20T01:07:32;100743.31;;;19.35;52.43
83248;BME280;73465;51.038;7.052;2023-12-20T01:09:57;100745.03;;;19.36;52.55
83248;BME280;73465;51.038;7.052;2023-12-20T01:12:23;100747.59;;;19.37;52.17
83248;BME280;73465;51.038;7.052;2023-12-20T01:14:48;100748.66;;;19.35;52.42
83248;BME280;73465;51.038;7.052;2023-12-20T01:17:13;100716.06;;;19.20;52.33
83248;BME280;73465;51.038;7.052;2023-12-20T01:19:39;100755.69;;;19.36;52.56
83248;BME280;73465;51.038;7.052;2023-12-20T01:22:04;100756.66;;;19.35;52.47
83248;BME280;73465;51.038;7.052;2023-12-20T01:24:30;100750.75;;;19.31;52.79
83248;BME280;73465;51.038;7.052;2023-12-20T01:26:55;100754.28;;;19.32;52.63
83248;BME280;73465;51.038;7.052;2023-12-20T01:29:20;100760.81;;;19.39;52.46
83248;BME280;73465;51.038;7.052;2023-12-20T01:31:46;100763.94;;;19.44;52.31
83248;BME280;73465;51.038;7.052;2023-12-20T01:34:12;100763.22;;;19.42;52.29
83248;BME280;73465;51.038;7.052;2023-12-20T01:36:37;100758.00;;;19.40;52.52
83248;BME280;73465;51.038;7.052;2023-12-20T01:39:03;100758.38;;;19.36;52.47
83248;BME280;73465;51.038;7.052;2023-12-20T01:41:28;100751.34;;;19.35;52.79
83248;BME280;73465;51.038;7.052;2023-12-20T01:43:53;100758.50;;;19.34;52.88
83248;BME280;73465;51.038;7.052;2023-12-20T01:46:19;100764.59;;;19.36;52.81
83248;BME280;73465;51.038;7.052;2023-12-20T01:48:45;100767.13;;;19.38;52.62
83248;BME280;73465;51.038;7.052;2023-12-20T01:51:11;100778.78;;;19.37;52.80
83248;BME280;73465;51.038;7.052;2023-12-20T01:53:37;100784.38;;;19.34;52.84
83248;BME280;73465;51.038;7.052;2023-12-20T01:56:03;100758.06;;;19.18;52.78
83248;BME280;73465;51.038;7.052;2023-12-20T01:58:29;100781.81;;;19.32;52.98
83248;BME280;73465;51.038;7.052;2023-12-20T02:00:56;100780.97;;;19.32;52.67
83248;BME280;73465;51.038;7.052;2023-12-20T02:03:22;100782.81;;;19.31;52.80
83248;BME280;73465;51.038;7.052;2023-12-20T02:05:47;100781.47;;;19.26;52.91
83248;BME280;73465;51.038;7.052;2023-12-20T02:08:13;100774.94;;;19.18;52.76
83248;BME280;73465;51.038;7.052;2023-12-20T02:10:39;100784.88;;;19.28;52.80
83248;BME280;73465;51.038;7.052;2023-12-20T02:13:05;100769.47;;;19.20;52.63
83248;BME280;73465;51.038;7.052;2023-12-20T02:15:31;100784.13;;;19.26;52.87
83248;BME280;73465;51.038;7.052;2023-12-20T02:17:56;100787.41;;;19.29;52.62
83248;BME280;73465;51.038;7.052;2023-12-20T02:20:22;100789.22;;;19.29;52.74
83248;BME280;73465;51.038;7.052;2023-12-20T02:22:52;100790.22;;;19.28;52.64
83248;BME280;73465;51.038;7.052;2023-12-20T02:25:17;100798.22;;;19.28;52.74
83248;BME280;73465;51.038;7.052;2023-12-20T02:27:42;100763.06;;;19.11;52.56
83248;BME280;73465;51.038;7.052;2023-12-20T02:30:09;100786.06;;;19.23;52.77
83248;BME280;73465;51.038;7.052;2023-12-20T02:32:35;100783.41;;;19.23;52.75
83248;BME280;73465;51.038;7.052;2023-12-20T02:35:00;100788.75;;;19.23;52.66
83248;BME280;73465;51.038;7.052;2023-12-20T02:37:26;100801.13;;;19.24;52.85
83248;BME280;73465;51.038;7.052;2023-12-20T02:39:51;100811.22;;;19.21;52.67
83248;BME280;73465;51.038;7.052;2023-12-20T02:42:16;100813.88;;;19.21;53.20
83248;BME280;73465;51.038;7.052;2023-12-20T02:44:41;100809.41;;;19.21;53.01
83248;BME280;73465;51.038;7.052;2023-12-20T02:47:07;100811.34;;;19.19;52.98
83248;BME280;73465;51.038;7.052;2023-12-20T02:49:32;100815.72;;;19.20;52.61
83248;BME280;73465;51.038;7.052;2023-12-20T02:51:57;100812.31;;;19.18;52.83
83248;BME280;73465;51.038;7.052;2023-12-20T02:54:23;100821.16;;;19.19;52.60
83248;BME280;73465;51.038;7.052;2023-12-20T02:56:48;100810.59;;;19.17;52.85
83248;BME280;73465;51.038;7.052;2023-12-20T02:59:13;100793.16;;;19.13;52.73
83248;BME280;73465;51.038;7.052;2023-12-20T03:01:44;100817.41;;;19.21;52.81
83248;BME280;73465;51.038;7.052;2023-12-20T03:04:09;100816.69;;;19.19;52.99
83248;BME280;73465;51.038;7.052;2023-12-20T03:06:35;100829.88;;;19.21;52.75
83248;BME280;73465;51.038;7.052;2023-12-20T03:09:00;100830.75;;;19.21;52.74
83248;BME280;73465;51.038;7.052;2023-12-20T03:11:28;100814.97;;;19.18;52.89
83248;BME280;73465;51.038;7.052;2023-12-20T03:13:54;100826.63;;;19.17;53.17
83248;BME280;73465;51.038;7.052;2023-12-20T03:16:20;100814.25;;;19.16;52.83
83248;BME280;73465;51.038;7.052;2023-12-20T03:18:45;100817.78;;;19.17;52.94
83248;BME280;73465;51.038;7.052;2023-12-20T03:21:11;100815.94;;;19.17;53.05
83248;BME280;73465;51.038;7.052;2023-12-20T03:23:36;100809.63;;;19.18;52.95
83248;BME280;73465;51.038;7.052;2023-12-20T03:26:01;100816.69;;;19.19;52.88
83248;BME280;73465;51.038;7.052;2023-12-20T03:28:27;100812.53;;;19.15;53.05
83248;BME280;73465;51.038;7.052;2023-12-20T03:30:53;100809.88;;;19.15;52.74
83248;BME280;73465;51.038;7.052;2023-12-20T03:33:18;100823.13;;;19.17;52.68
83248;BME280;73465;51.038;7.052;2023-12-20T03:35:44;100808.06;;;19.16;53.00
83248;BME280;73465;51.038;7.052;2023-12-20T03:38:09;100803.56;;;19.16;52.72
83248;BME280;73465;51.038;7.052;2023-12-20T03:40:34;100807.94;;;19.17;52.93
83248;BME280;73465;51.038;7.052;2023-12-20T03:43:00;100810.00;;;19.14;52.82
83248;BME280;73465;51.038;7.052;2023-12-20T03:45:25;100806.34;;;19.15;52.81
83248;BME280;73465;51.038;7.052;2023-12-20T03:47:50;100799.31;;;19.14;52.96
83248;BME280;73465;51.038;7.052;2023-12-20T03:50:21;100798.47;;;19.13;52.95
83248;BME280;73465;51.038;7.052;2023-12-20T03:52:47;100808.19;;;19.14;52.86
83248;BME280;73465;51.038;7.052;2023-12-20T03:55:12;100803.81;;;19.13;52.89
83248;BME280;73465;51.038;7.052;2023-12-20T03:57:38;100802.75;;;19.04;53.13
83248;BME280;73465;51.038;7.052;2023-12-20T04:00:03;100812.78;;;19.12;53.14
83248;BME280;73465;51.038;7.052;2023-12-20T04:02:29;100807.47;;;19.12;53.17
83248;BME280;73465;51.038;7.052;2023-12-20T04:04:54;100805.53;;;19.14;53.00
83248;BME280;73465;51.038;7.052;2023-12-20T04:07:19;100804.91;;;19.11;53.17
83248;BME280;73465;51.038;7.052;2023-12-20T04:09:45;100812.66;;;19.14;53.07
83248;BME280;73465;51.038;7.052;2023-12-20T04:12:10;100815.47;;;19.12;52.90
83248;BME280;73465;51.038;7.052;2023-12-20T04:14:35;100805.75;;;19.11;52.94
83248;BME280;73465;51.038;7.052;2023-12-20T04:17:00;100809.28;;;19.12;52.95
83248;BME280;73465;51.038;7.052;2023-12-20T04:19:26;100811.59;;;19.05;53.16
83248;BME280;73465;51.038;7.052;2023-12-20T04:21:51;100802.34;;;19.09;52.89
83248;BME280;73465;51.038;7.052;2023-12-20T04:24:16;100805.75;;;19.11;52.90
83248;BME280;73465;51.038;7.052;2023-12-20T04:26:42;100799.69;;;19.09;52.95
83248;BME280;73465;51.038;7.052;2023-12-20T04:29:07;100797.16;;;19.07;52.96
83248;BME280;73465;51.038;7.052;2023-12-20T04:31:32;100794.47;;;19.07;53.06
83248;BME280;73465;51.038;7.052;2023-12-20T04:33:57;100801.66;;;19.07;53.14
83248;BME280;73465;51.038;7.052;2023-12-20T04:36:23;100805.28;;;19.06;53.14
83248;BME280;73465;51.038;7.052;2023-12-20T04:38:50;100800.66;;;18.97;53.17
83248;BME280;73465;51.038;7.052;2023-12-20T04:41:15;100819.38;;;19.08;53.10
83248;BME280;73465;51.038;7.052;2023-12-20T04:43:41;100809.53;;;18.97;53.10
83248;BME280;73465;51.038;7.052;2023-12-20T04:46:06;100816.69;;;19.08;53.12
83248;BME280;73465;51.038;7.052;2023-12-20T04:48:32;100822.88;;;19.08;53.20
83248;BME280;73465;51.038;7.052;2023-12-20T04:50:57;100828.22;;;19.08;53.33
83248;BME280;73465;51.038;7.052;2023-12-20T04:53:22;100823.84;;;19.07;52.90
83248;BME280;73465;51.038;7.052;2023-12-20T04:55:48;100822.03;;;19.08;53.28
83248;BME280;73465;51.038;7.052;2023-12-20T04:58:13;100818.63;;;19.06;52.98
83248;BME280;73465;51.038;7.052;2023-12-20T05:00:38;100818.63;;;19.06;53.17
83248;BME280;73465;51.038;7.052;2023-12-20T05:03:04;100822.03;;;19.08;53.11
83248;BME280;73465;51.038;7.052;2023-12-20T05:05:29;100821.44;;;19.04;53.66
83248;BME280;73465;51.038;7.052;2023-12-20T05:07:54;100825.28;;;19.00;53.57
83248;BME280;73465;51.038;7.052;2023-12-20T05:10:20;100819.84;;;19.02;53.16
83248;BME280;73465;51.038;7.052;2023-12-20T05:12:45;100818.84;;;19.03;53.17
83248;BME280;73465;51.038;7.052;2023-12-20T05:15:10;100819.47;;;19.06;53.33
83248;BME280;73465;51.038;7.052;2023-12-20T05:17:36;100817.88;;;19.04;53.08
83248;BME280;73465;51.038;7.052;2023-12-20T05:20:01;100816.19;;;19.03;53.16
83248;BME280;73465;51.038;7.052;2023-12-20T05:22:27;100831.97;;;19.06;53.26
83248;BME280;73465;51.038;7.052;2023-12-20T05:24:52;100812.56;;;18.92;53.46
83248;BME280;73465;51.038;7.052;2023-12-20T05:27:18;100828.69;;;19.02;53.37
83248;BME280;73465;51.038;7.052;2023-12-20T05:29:43;100816.31;;;19.01;53.03
83248;BME280;73465;51.038;7.052;2023-12-20T05:32:09;100818.84;;;19.03;53.09
83248;BME280;73465;51.038;7.052;2023-12-20T05:34:35;100817.88;;;19.04;53.08
83248;BME280;73465;51.038;7.052;2023-12-20T05:37:00;100799.56;;;18.88;53.13
83248;BME280;73465;51.038;7.052;2023-12-20T05:39:26;100822.75;;;18.99;53.37
83248;BME280;73465;51.038;7.052;2023-12-20T05:41:52;100796.56;;;18.92;53.19
83248;BME280;73465;51.038;7.052;2023-12-20T05:44:17;100794.50;;;18.96;53.24
83248;BME280;73465;51.038;7.052;2023-12-20T05:46:43;100810.25;;;19.11;53.18
83248;BME280;73465;51.038;7.052;2023-12-20T05:49:09;100799.03;;;16.79;52.55
83248;BME280;73465;51.038;7.052;2023-12-20T05:51:34;100823.84;;;12.17;58.65
83248;BME280;73465;51.038;7.052;2023-12-20T05:53:59;100821.78;;;11.51;60.87
83248;BME280;73465;51.038;7.052;2023-12-20T05:56:24;100803.28;;;12.24;57.84
83248;BME280;73465;51.038;7.052;2023-12-20T05:58:50;100817.31;;;13.59;54.65
83248;BME280;73465;51.038;7.052;2023-12-20T06:01:16;100814.03;;;13.86;53.85
83248;BME280;73465;51.038;7.052;2023-12-20T06:03:44;100815.88;;;14.59;52.56
83248;BME280;73465;51.038;7.052;2023-12-20T06:06:09;100811.50;;;15.99;50.98
83248;BME280;73465;51.038;7.052;2023-12-20T06:08:36;100822.97;;;17.05;49.86
83248;BME280;73465;51.038;7.052;2023-12-20T06:11:01;100821.16;;;17.91;47.82
83248;BME280;73465;51.038;7.052;2023-12-20T06:13:26;100820.63;;;18.46;47.04
83248;BME280;73465;51.038;7.052;2023-12-20T06:15:52;100808.31;;;18.79;46.64
83248;BME280;73465;51.038;7.052;2023-12-20T06:18:17;100825.91;;;19.04;46.76
83248;BME280;73465;51.038;7.052;2023-12-20T06:20:42;100829.53;;;19.26;46.66
83248;BME280;73465;51.038;7.052;2023-12-20T06:23:08;100825.00;;;19.49;46.39
83248;BME280;73465;51.038;7.052;2023-12-20T06:25:33;100822.88;;;19.64;46.38
83248;BME280;73465;51.038;7.052;2023-12-20T06:27:58;100838.69;;;19.67;46.54
83248;BME280;73465;51.038;7.052;2023-12-20T06:30:24;100833.06;;;19.70;46.57
83248;BME280;73465;51.038;7.052;2023-12-20T06:32:50;100839.50;;;19.67;46.83
83248;BME280;73465;51.038;7.052;2023-12-20T06:35:16;100840.94;;;19.71;47.38
83248;BME280;73465;51.038;7.052;2023-12-20T06:37:41;100839.00;;;19.73;47.19
83248;BME280;73465;51.038;7.052;2023-12-20T06:40:09;100834.75;;;19.71;48.18
83248;BME280;73465;51.038;7.052;2023-12-20T06:42:35;100840.03;;;19.94;48.05
83248;BME280;73465;51.038;7.052;2023-12-20T06:45:00;100831.47;;;20.11;47.36
83248;BME280;73465;51.038;7.052;2023-12-20T06:47:26;100837.00;;;20.19;47.37
83248;BME280;73465;51.038;7.052;2023-12-20T06:49:51;100837.22;;;20.28;47.80
83248;BME280;73465;51.038;7.052;2023-12-20T06:52:17;100829.63;;;20.33;47.41
83248;BME280;73465;51.038;7.052;2023-12-20T06:54:42;100837.28;;;20.38;47.70
83248;BME280;73465;51.038;7.052;2023-12-20T06:57:07;100835.63;;;20.46;47.55
83248;BME280;73465;51.038;7.052;2023-12-20T06:59:38;100816.22;;;20.44;47.96
83248;BME280;73465;51.038;7.052;2023-12-20T07:02:03;100829.50;;;20.56;47.46
83248;BME280;73465;51.038;7.052;2023-12-20T07:04:30;100836.13;;;20.73;47.34
83248;BME280;73465;51.038;7.052;2023-12-20T07:06:55;100842.25;;;20.84;47.19
83248;BME280;73465;51.038;7.052;2023-12-20T07:09:22;100835.63;;;20.89;47.21
83248;BME280;73465;51.038;7.052;2023-12-20T07:11:48;100841.84;;;20.99;47.29
83248;BME280;73465;51.038;7.052;2023-12-20T07:14:13;100839.38;;;21.07;47.32
83248;BME280;73465;51.038;7.052;2023-12-20T07:16:39;100832.16;;;21.08;47.27
83248;BME280;73465;51.038;7.052;2023-12-20T07:19:05;100832.88;;;21.10;47.74
83248;BME280;73465;51.038;7.052;2023-12-20T07:21:31;100840.69;;;21.23;47.15
83248;BME280;73465;51.038;7.052;2023-12-20T07:23:56;100836.03;;;21.25;47.24
83248;BME280;73465;51.038;7.052;2023-12-20T07:26:21;100841.13;;;21.28;47.21
83248;BME280;73465;51.038;7.052;2023-12-20T07:28:47;100844.22;;;21.33;47.16
83248;BME280;73465;51.038;7.052;2023-12-20T07:31:12;100836.50;;;21.40;47.32
83248;BME280;73465;51.038;7.052;2023-12-20T07:33:37;100836.06;;;21.44;47.28
83248;BME280;73465;51.038;7.052;2023-12-20T07:36:03;100843.44;;;21.42;47.47
83248;BME280;73465;51.038;7.052;2023-12-20T07:38:28;100839.47;;;21.46;47.38
83248;BME280;73465;51.038;7.052;2023-12-20T07:40:54;100836.25;;;21.53;47.27
83248;BME280;73465;51.038;7.052;2023-12-20T07:43:19;100837.13;;;21.63;47.57
83248;BME280;73465;51.038;7.052;2023-12-20T07:45:44;100850.53;;;21.63;47.20
83248;BME280;73465;51.038;7.052;2023-12-20T07:48:09;100849.53;;;21.64;47.35
83248;BME280;73465;51.038;7.052;2023-12-20T07:50:35;100845.03;;;21.64;47.21
83248;BME280;73465;51.038;7.052;2023-12-20T07:53:00;100854.16;;;21.52;47.79
83248;BME280;73465;51.038;7.052;2023-12-20T07:55:26;100846.78;;;21.44;47.86
83248;BME280;73465;51.038;7.052;2023-12-20T07:57:52;100844.13;;;21.44;47.79
83248;BME280;73465;51.038;7.052;2023-12-20T08:00:17;100818.00;;;21.27;47.78
83248;BME280;73465;51.038;7.052;2023-12-20T08:02:43;100830.59;;;21.36;48.00
83248;BME280;73465;51.038;7.052;2023-12-20T08:05:08;100833.84;;;21.40;48.08
83248;BME280;73465;51.038;7.052;2023-12-20T08:07:34;100847.34;;;21.38;47.99
83248;BME280;73465;51.038;7.052;2023-12-20T08:09:59;100849.03;;;21.39;48.06
83248;BME280;73465;51.038;7.052;2023-12-20T08:12:25;100847.50;;;21.46;47.97
83248;BME280;73465;51.038;7.052;2023-12-20T08:14:53;100865.44;;;21.56;48.21
83248;BME280;73465;51.038;7.052;2023-12-20T08:17:18;100848.34;;;21.47;48.08
83248;BME280;73465;51.038;7.052;2023-12-20T08:19:44;100849.63;;;21.53;47.82
83248;BME280;73465;51.038;7.052;2023-12-20T08:22:09;100852.78;;;21.58;47.68
83248;BME280;73465;51.038;7.052;2023-12-20T08:24:35;100858.44;;;21.64;47.55
83248;BME280;73465;51.038;7.052;2023-12-20T08:27:00;100839.69;;;21.64;47.59
83248;BME280;73465;51.038;7.052;2023-12-20T08:29:25;100829.09;;;21.63;47.42
83248;BME280;73465;51.038;7.052;2023-12-20T08:31:55;100844.34;;;21.72;47.52
83248;BME280;73465;51.038;7.052;2023-12-20T08:34:20;100823.19;;;21.59;47.16
83248;BME280;73465;51.038;7.052;2023-12-20T08:36:46;100845.31;;;21.71;47.65
83248;BME280;73465;51.038;7.052;2023-12-20T08:39:11;100846.59;;;21.77;47.60
83248;BME280;73465;51.038;7.052;2023-12-20T08:41:36;100849.16;;;21.88;47.26
83248;BME280;73465;51.038;7.052;2023-12-20T08:44:02;100850.28;;;21.86;47.34
83248;BME280;73465;51.038;7.052;2023-12-20T08:46:28;100856.91;;;21.82;47.57
83248;BME280;73465;51.038;7.052;2023-12-20T08:48:54;100854.81;;;21.85;47.73
83248;BME280;73465;51.038;7.052;2023-12-20T08:51:19;100850.69;;;21.81;47.13
83248;BME280;73465;51.038;7.052;2023-12-20T08:53:48;100867.75;;;21.70;48.27
83248;BME280;73465;51.038;7.052;2023-12-20T08:56:13;100865.22;;;21.69;48.15
83248;BME280;73465;51.038;7.052;2023-12-20T08:58:39;100866.50;;;21.74;48.12
83248;BME280;73465;51.038;7.052;2023-12-20T09:01:04;100865.78;;;21.82;48.05
83248;BME280;73465;51.038;7.052;2023-12-20T09:03:29;100875.13;;;21.78;48.06
83248;BME280;73465;51.038;7.052;2023-12-20T09:05:55;100866.09;;;21.79;48.16
83248;BME280;73465;51.038;7.052;2023-12-20T09:08:20;100866.63;;;21.73;48.37
83248;BME280;73465;51.038;7.052;2023-12-20T09:10:45;100868.19;;;21.75;48.45
83248;BME280;73465;51.038;7.052;2023-12-20T09:13:11;100853.94;;;21.75;48.24
83248;BME280;73465;51.038;7.052;2023-12-20T09:15:36;100868.31;;;21.74;48.67
83248;BME280;73465;51.038;7.052;2023-12-20T09:18:02;100855.22;;;21.71;48.80
83248;BME280;73465;51.038;7.052;2023-12-20T09:20:27;100860.72;;;21.79;48.64
83248;BME280;73465;51.038;7.052;2023-12-20T09:22:53;100846.88;;;21.84;48.34
83248;BME280;73465;51.038;7.052;2023-12-20T09:25:18;100840.38;;;21.86;48.45
83248;BME280;73465;51.038;7.052;2023-12-20T09:27:43;100842.94;;;21.98;48.10
83248;BME280;73465;51.038;7.052;2023-12-20T09:30:09;100845.47;;;21.99;47.96
83248;BME280;73465;51.038;7.052;2023-12-20T09:32:35;100843.53;;;22.01;47.91
83248;BME280;73465;51.038;7.052;2023-12-20T09:35:01;100838.72;;;22.05;47.97
83248;BME280;73465;51.038;7.052;2023-12-20T09:37:26;100820.63;;;21.97;48.21
83248;BME280;73465;51.038;7.052;2023-12-20T09:39:52;100845.91;;;22.04;48.17
83248;BME280;73465;51.038;7.052;2023-12-20T09:42:24;100840.94;;;22.00;48.28
83248;BME280;73465;51.038;7.052;2023-12-20T09:44:53;100850.00;;;21.79;48.42
83248;BME280;73465;51.038;7.052;2023-12-20T09:47:20;100842.38;;;21.64;48.71
83248;BME280;73465;51.038;7.052;2023-12-20T09:49:48;100844.75;;;21.68;48.82
83248;BME280;73465;51.038;7.052;2023-12-20T09:52:15;100846.88;;;21.84;48.66
83248;BME280;73465;51.038;7.052;2023-12-20T09:54:41;100848.72;;;21.83;48.39
83248;BME280;73465;51.038;7.052;2023-12-20T09:57:09;100843.53;;;21.91;48.45
83248;BME280;73465;51.038;7.052;2023-12-20T09:59:34;100837.84;;;21.85;48.41
83248;BME280;73465;51.038;7.052;2023-12-20T10:02:01;100832.22;;;21.88;48.17
83248;BME280;73465;51.038;7.052;2023-12-20T10:04:31;100832.22;;;21.78;48.38
83248;BME280;73465;51.038;7.052;2023-12-20T10:07:01;100832.34;;;21.76;48.75
83248;BME280;73465;51.038;7.052;2023-12-20T10:09:31;100823.31;;;21.68;48.39
83248;BME280;73465;51.038;7.052;2023-12-20T10:11:57;100838.00;;;21.73;48.61
83248;BME280;73465;51.038;7.052;2023-12-20T10:14:22;100821.91;;;21.63;48.80
83248;BME280;73465;51.038;7.052;2023-12-20T10:16:50;100835.88;;;21.67;48.86
83248;BME280;73465;51.038;7.052;2023-12-20T10:19:19;100808.09;;;21.68;48.47
83248;BME280;73465;51.038;7.052;2023-12-20T10:21:44;100825.44;;;21.74;48.68
83248;BME280;73465;51.038;7.052;2023-12-20T10:24:17;100821.91;;;21.83;48.33
83248;BME280;73465;51.038;7.052;2023-12-20T10:26:42;100832.91;;;22.00;48.08
83248;BME280;73465;51.038;7.052;2023-12-20T10:29:07;100824.03;;;21.99;48.13
83248;BME280;73465;51.038;7.052;2023-12-20T10:31:33;100819.50;;;22.00;48.12
83248;BME280;73465;51.038;7.052;2023-12-20T10:34:01;100813.72;;;22.04;48.08
83248;BME280;73465;51.038;7.052;2023-12-20T10:36:31;100822.91;;;22.02;48.14
83248;BME280;73465;51.038;7.052;2023-12-20T10:38:57;100806.66;;;22.03;47.90
83248;BME280;73465;51.038;7.052;2023-12-20T10:41:28;100808.66;;;22.01;48.23
83248;BME280;73465;51.038;7.052;2023-12-20T10:43:56;100778.59;;;21.88;48.37
83248;BME280;73465;51.038;7.052;2023-12-20T10:46:23;100798.94;;;21.90;48.56
83248;BME280;73465;51.038;7.052;2023-12-20T10:48:53;100800.63;;;22.01;48.32
83248;BME280;73465;51.038;7.052;2023-12-20T10:51:20;100788.75;;;21.94;48.70
83248;BME280;73465;51.038;7.052;2023-12-20T10:53:47;100793.56;;;22.00;48.50
83248;BME280;73465;51.038;7.052;2023-12-20T10:56:16;100792.97;;;22.06;47.95
83248;BME280;73465;51.038;7.052;2023-12-20T10:58:42;100791.03;;;21.99;48.38
83248;BME280;73465;51.038;7.052;2023-12-20T11:01:12;100791.56;;;22.02;48.24
83248;BME280;73465;51.038;7.052;2023-12-20T11:03:38;100768.31;;;21.83;48.16
83248;BME280;73465;51.038;7.052;2023-12-20T11:06:25;100783.09;;;21.77;47.78
83248;BME280;73465;51.038;7.052;2023-12-20T11:09:40;100789.19;;;13.08;55.67
83248;BME280;73465;51.038;7.052;2023-12-20T11:12:01;100794.34;;;18.05;48.77
83248;BME280;73465;51.038;7.052;2023-12-20T11:14:45;100774.09;;;19.94;44.29
83248;BME280;73465;51.038;7.052;2023-12-20T11:17:11;100791.03;;;20.47;44.34
83248;BME280;73465;51.038;7.052;2023-12-20T11:22:27;100789.50;;;20.75;44.35
83248;BME280;73465;51.038;7.052;2023-12-20T11:24:53;100791.78;;;20.80;44.63
83248;BME280;73465;51.038;7.052;2023-12-20T11:27:19;100793.59;;;20.79;44.73
83248;BME280;73465;51.038;7.052;2023-12-20T11:29:53;100769.16;;;20.63;44.85
83248;BME280;73465;51.038;7.052;2023-12-20T11:34:51;100773.31;;;20.77;45.37
83248;BME280;73465;51.038;7.052;2023-12-20T11:37:19;100776.28;;;20.74;45.73
83248;BME280;73465;51.038;7.052;2023-12-20T11:39:45;100764.09;;;20.69;45.74
83248;BME280;73465;51.038;7.052;2023-12-20T11:42:10;100754.50;;;20.67;45.63
83248;BME280;73465;51.038;7.052;2023-12-20T11:44:36;100758.44;;;20.63;45.97
83248;BME280;73465;51.038;7.052;2023-12-20T11:47:02;100772.34;;;20.57;45.99
83248;BME280;73465;51.038;7.052;2023-12-20T11:49:28;100767.97;;;20.56;46.30
83248;BME280;73465;51.038;7.052;2023-12-20T11:51:56;100742.97;;;20.35;46.63
83248;BME280;73465;51.038;7.052;2023-12-20T11:54:21;100767.16;;;20.34;47.92
83248;BME280;73465;51.038;7.052;2023-12-20T11:56:47;100763.25;;;20.38;47.73
83248;BME280;73465;51.038;7.052;2023-12-20T11:59:13;100764.38;;;20.35;47.86
83248;BME280;73465;51.038;7.052;2023-12-20T12:01:38;100770.56;;;20.36;47.69
83248;BME280;73465;51.038;7.052;2023-12-20T12:04:07;100750.22;;;20.24;47.45
83248;BME280;73465;51.038;7.052;2023-12-20T12:06:32;100766.47;;;20.32;47.49
83248;BME280;73465;51.038;7.052;2023-12-20T12:08:58;100765.75;;;20.30;47.50
83248;BME280;73465;51.038;7.052;2023-12-20T12:11:24;100762.63;;;20.25;47.47
83248;BME280;73465;51.038;7.052;2023-12-20T12:13:50;100757.66;;;20.20;47.85
83248;BME280;73465;51.038;7.052;2023-12-20T12:16:20;100753.56;;;20.16;47.82
83248;BME280;73465;51.038;7.052;2023-12-20T12:18:45;100744.75;;;20.04;48.60
83248;BME280;73465;51.038;7.052;2023-12-20T12:21:19;100748.31;;;20.14;48.32
83248;BME280;73465;51.038;7.052;2023-12-20T12:23:45;100744.38;;;20.09;48.73
83248;BME280;73465;51.038;7.052;2023-12-20T12:26:11;100744.03;;;20.02;49.43
83248;BME280;73465;51.038;7.052;2023-12-20T12:28:40;100715.88;;;19.98;49.30
83248;BME280;73465;51.038;7.052;2023-12-20T12:31:05;100727.75;;;20.05;48.98
83248;BME280;73465;51.038;7.052;2023-12-20T12:33:31;100733.19;;;20.03;48.53
83248;BME280;73465;51.038;7.052;2023-12-20T12:35:56;100732.50;;;20.01;48.69
83248;BME280;73465;51.038;7.052;2023-12-20T12:38:22;100734.31;;;20.01;48.66
83248;BME280;73465;51.038;7.052;2023-12-20T12:40:49;100728.97;;;20.01;48.43
83248;BME280;73465;51.038;7.052;2023-12-20T12:43:15;100724.34;;;20.03;48.56
83248;BME280;73465;51.038;7.052;2023-12-20T12:45:40;100719.72;;;20.05;48.35
83248;BME280;73465;51.038;7.052;2023-12-20T12:48:07;100715.56;;;20.12;48.39
83248;BME280;73465;51.038;7.052;2023-12-20T12:50:32;100708.66;;;20.19;47.99